Interior, SD

1:02 PM MDT on October 23, 2017 (GMT -0600)
Cactus Flat | | Change Station
Active Advisory: Wind Advisory

Elev 2530 ft 43.81 °N, 101.89 °W | Updated 1 second ago

Clear
Clear
57.9 °F
Feels Like 57.9 °F
N
19.7
Wind Variable Wind from NW
Gusts 22.4 mph

Today
High -- | Low -- °F
--% Chance of Precip.
Yesterday
High -- | Low -- °F
Precip. -- in
Pressure 30.22 in
Visibility 10.0 miles
Clouds Mostly Cloudy 10000 ft
Dew Point 30 °F
Humidity 35%
Rainfall 0.00 in
Snow Depth Not available.
7:12 AM 5:51 PM
Waxing Crescent, 15% visible
METAR KPHP 231855Z AUTO 32026G35KT 10SM BKN100 15/M02 A3023 RMK AO2 PK WND 32040/1844 SLP231 T01501022
Pressure 30.22 in
Visibility 10.0 miles
Clouds Mostly Cloudy 10000 ft
Dew Point 30 °F
Humidity 35%
Rainfall 0.00 in
Snow Depth Not available.
7:12 AM 5:51 PM
Waxing Crescent, 15% visible
METAR KPHP 231855Z AUTO 32026G35KT 10SM BKN100 15/M02 A3023 RMK AO2 PK WND 32040/1844 SLP231 T01501022

Get Your Daily Forecast Email!

Thanks for signing up!

Be on the lookout for a verification email in your inbox.

You'll start receiving severe weather alerts in your inbox..

×

10-Day Weather Forecast

Almanac

Astronomy

Oct. 23, 2017 Rise Set
Actual Time
Civil Twilight
Nautical Twilight
Astronomical Twilight
Moon
Length of Visible Light
Length of Day
Tomorrow will be .
, % of the Moon is Illuminated

Today's Extremes

State Highs State Lows

Community

WunderPhotos

Category 6

Welcome to Category 6. This is the collective home for Weather Underground's featured writeups by Dr. Jeff Masters (right), Bob Henson (left), Chris Burt, and other regular contributors.

Nearby

Air Quality

  Air Quality AQ Index Pollutant
Not available.

Snow Depth

Station Depth Elevation

Earthquake Activity

City Distance Mag. Time & Date
Minimum magnitude displayed is 2.5.

Coastal Water Temperatures

Place Temperature

Stations

Nearby Weather Stations

Station Location Temp. Windchill Dew Point Humidity Wind Precip. Elev Updated Type
                   

Watches & Warnings

Wind Advisory
Issued: 10:43 AM CDT Oct. 23, 2017 – National Weather Service

... Wind Advisory remains in effect until 6 PM MDT /7 PM CDT/ this
evening...

* winds... northwest 25 to 40 mph with gusts up to 55 mph.

* Timing... gusty winds will continue today before diminishing
around sunset.

* Impacts... sudden wind gusts can cause drivers to lose control,
especially in lightweight or high profile vehicles. Strong
winds can cause blowing dust, reduced visibility, and flying
debris.

Precautionary/preparedness actions...

A Wind Advisory means 30 mph winds... or gusts over 45 mph... are
expected or occurring.